sensor_id;sensor_type;location;lat;lon;timestamp;pressure;altitude;pressure_sealevel;temperature;humidity
62436;BME280;48480;50.252;18.848;2024-01-11T00:01:48;99848.21;;;-7.21;65.64
62436;BME280;48480;50.252;18.848;2024-01-11T00:04:32;99844.44;;;-7.28;65.83
62436;BME280;48480;50.252;18.848;2024-01-11T00:07:23;99841.27;;;-7.32;66.12
62436;BME280;48480;50.252;18.848;2024-01-11T00:10:11;99841.84;;;-7.31;66.26
62436;BME280;48480;50.252;18.848;2024-01-11T00:12:55;99838.77;;;-7.30;66.25
62436;BME280;48480;50.252;18.848;2024-01-11T00:15:40;99835.67;;;-7.29;66.31
62436;BME280;48480;50.252;18.848;2024-01-11T00:18:24;99834.86;;;-7.28;66.49
62436;BME280;48480;50.252;18.848;2024-01-11T00:21:08;99838.04;;;-7.25;66.44
62436;BME280;48480;50.252;18.848;2024-01-11T00:23:52;99832.32;;;-7.19;66.40
62436;BME280;48480;50.252;18.848;2024-01-11T00:26:36;99828.20;;;-7.11;66.20
62436;BME280;48480;50.252;18.848;2024-01-11T00:29:20;99827.41;;;-7.02;65.98
62436;BME280;48480;50.252;18.848;2024-01-11T00:32:04;99823.13;;;-6.91;65.77
62436;BME280;48480;50.252;18.848;2024-01-11T00:34:48;99819.98;;;-6.85;65.79
62436;BME280;48480;50.252;18.848;2024-01-11T00:37:32;99820.09;;;-6.89;65.81
62436;BME280;48480;50.252;18.848;2024-01-11T00:40:17;99817.17;;;-6.96;66.10
62436;BME280;48480;50.252;18.848;2024-01-11T00:43:01;99814.98;;;-7.01;65.91
62436;BME280;48480;50.252;18.848;2024-01-11T00:45:46;99810.30;;;-7.10;66.13
62436;BME280;48480;50.252;18.848;2024-01-11T00:48:30;99806.98;;;-7.18;66.23
62436;BME280;48480;50.252;18.848;2024-01-11T00:51:15;99804.49;;;-7.23;66.39
62436;BME280;48480;50.252;18.848;2024-01-11T00:53:59;99801.55;;;-7.31;66.44
62436;BME280;48480;50.252;18.848;2024-01-11T00:56:43;99801.96;;;-7.42;66.60
62436;BME280;48480;50.252;18.848;2024-01-11T00:59:27;99805.52;;;-7.50;66.62
62436;BME280;48480;50.252;18.848;2024-01-11T01:02:11;99806.90;;;-7.52;66.82
62436;BME280;48480;50.252;18.848;2024-01-11T01:04:55;99801.85;;;-7.49;66.91
62436;BME280;48480;50.252;18.848;2024-01-11T01:07:40;99804.63;;;-7.41;67.11
62436;BME280;48480;50.252;18.848;2024-01-11T01:10:24;99803.96;;;-7.31;67.05
62436;BME280;48480;50.252;18.848;2024-01-11T01:13:09;99798.43;;;-7.20;66.51
62436;BME280;48480;50.252;18.848;2024-01-11T01:15:53;99796.57;;;-7.10;66.20
62436;BME280;48480;50.252;18.848;2024-01-11T01:18:36;99795.80;;;-6.99;66.20
62436;BME280;48480;50.252;18.848;2024-01-11T01:21:21;99799.16;;;-6.86;66.16
62436;BME280;48480;50.252;18.848;2024-01-11T01:24:05;99798.76;;;-6.76;65.94
62436;BME280;48480;50.252;18.848;2024-01-11T01:26:50;99796.45;;;-6.69;65.62
62436;BME280;48480;50.252;18.848;2024-01-11T01:29:34;99794.85;;;-6.67;65.66
62436;BME280;48480;50.252;18.848;2024-01-11T01:32:18;99795.52;;;-6.67;65.74
62436;BME280;48480;50.252;18.848;2024-01-11T01:35:02;99794.02;;;-6.72;65.70
62436;BME280;48480;50.252;18.848;2024-01-11T01:37:47;99788.31;;;-6.77;65.22
62436;BME280;48480;50.252;18.848;2024-01-11T01:40:31;99785.31;;;-6.82;65.33
62436;BME280;48480;50.252;18.848;2024-01-11T01:43:18;99783.45;;;-6.85;65.71
62436;BME280;48480;50.252;18.848;2024-01-11T01:46:03;99782.03;;;-6.91;65.60
62436;BME280;48480;50.252;18.848;2024-01-11T01:48:48;99779.83;;;-6.99;65.20
62436;BME280;48480;50.252;18.848;2024-01-11T01:51:33;99779.36;;;-7.08;65.37
62436;BME280;48480;50.252;18.848;2024-01-11T01:54:18;99781.63;;;-7.14;65.54
62436;BME280;48480;50.252;18.848;2024-01-11T01:57:04;99784.56;;;-7.18;65.62
62436;BME280;48480;50.252;18.848;2024-01-11T01:59:51;99785.64;;;-7.21;65.53
62436;BME280;48480;50.252;18.848;2024-01-11T02:02:40;99776.42;;;-7.21;65.57
62436;BME280;48480;50.252;18.848;2024-01-11T02:05:26;99773.28;;;-7.16;65.48
62436;BME280;48480;50.252;18.848;2024-01-11T02:08:15;99771.52;;;-7.13;65.60
62436;BME280;48480;50.252;18.848;2024-01-11T02:11:00;99770.29;;;-7.06;65.76
62436;BME280;48480;50.252;18.848;2024-01-11T02:13:45;99774.91;;;-6.96;65.92
62436;BME280;48480;50.252;18.848;2024-01-11T02:16:29;99764.20;;;-6.86;65.84
62436;BME280;48480;50.252;18.848;2024-01-11T02:19:14;99753.33;;;-6.74;65.83
62436;BME280;48480;50.252;18.848;2024-01-11T02:22:04;99759.55;;;-6.67;65.79
62436;BME280;48480;50.252;18.848;2024-01-11T02:24:50;99764.05;;;-6.65;65.79
62436;BME280;48480;50.252;18.848;2024-01-11T02:27:49;99755.95;;;-6.66;65.71
62436;BME280;48480;50.252;18.848;2024-01-11T02:30:34;99756.73;;;-6.67;65.92
62436;BME280;48480;50.252;18.848;2024-01-11T02:33:18;99754.91;;;-6.72;66.07
62436;BME280;48480;50.252;18.848;2024-01-11T02:36:03;99748.42;;;-6.75;65.89
62436;BME280;48480;50.252;18.848;2024-01-11T02:38:48;99747.66;;;-6.78;65.84
62436;BME280;48480;50.252;18.848;2024-01-11T02:41:33;99753.75;;;-6.82;65.92
62436;BME280;48480;50.252;18.848;2024-01-11T02:44:17;99750.94;;;-6.89;65.90
62436;BME280;48480;50.252;18.848;2024-01-11T02:47:02;99754.58;;;-6.89;66.29
62436;BME280;48480;50.252;18.848;2024-01-11T02:49:46;99759.60;;;-6.90;66.38
62436;BME280;48480;50.252;18.848;2024-01-11T02:52:30;99761.25;;;-6.91;66.32
62436;BME280;48480;50.252;18.848;2024-01-11T02:55:15;99755.99;;;-6.89;66.35
62436;BME280;48480;50.252;18.848;2024-01-11T02:57:59;99755.70;;;-6.83;65.91
62436;BME280;48480;50.252;18.848;2024-01-11T03:00:43;99763.48;;;-6.79;65.87
62436;BME280;48480;50.252;18.848;2024-01-11T03:03:28;99761.95;;;-6.79;65.80
62436;BME280;48480;50.252;18.848;2024-01-11T03:06:13;99759.80;;;-6.79;65.98
62436;BME280;48480;50.252;18.848;2024-01-11T03:08:57;99749.67;;;-6.77;65.50
62436;BME280;48480;50.252;18.848;2024-01-11T03:11:42;99743.39;;;-6.72;65.27
62436;BME280;48480;50.252;18.848;2024-01-11T03:14:26;99734.81;;;-6.67;65.24
62436;BME280;48480;50.252;18.848;2024-01-11T03:17:10;99728.65;;;-6.62;65.43
62436;BME280;48480;50.252;18.848;2024-01-11T03:19:54;99727.00;;;-6.59;65.54
62436;BME280;48480;50.252;18.848;2024-01-11T03:22:45;99732.85;;;-6.59;65.65
62436;BME280;48480;50.252;18.848;2024-01-11T03:25:32;99725.19;;;-6.62;65.63
62436;BME280;48480;50.252;18.848;2024-01-11T03:28:20;99721.46;;;-6.71;65.43
62436;BME280;48480;50.252;18.848;2024-01-11T03:31:04;99723.77;;;-6.80;65.67
62436;BME280;48480;50.252;18.848;2024-01-11T03:33:49;99719.40;;;-6.86;65.72
62436;BME280;48480;50.252;18.848;2024-01-11T03:36:33;99705.44;;;-6.92;65.57
62436;BME280;48480;50.252;18.848;2024-01-11T03:39:18;99710.01;;;-7.00;65.89
62436;BME280;48480;50.252;18.848;2024-01-11T03:42:02;99712.80;;;-7.07;65.75
62436;BME280;48480;50.252;18.848;2024-01-11T03:44:48;99699.36;;;-7.17;65.57
62436;BME280;48480;50.252;18.848;2024-01-11T03:47:32;99699.17;;;-7.13;65.77
62436;BME280;48480;50.252;18.848;2024-01-11T03:50:16;99705.91;;;-7.09;65.73
62436;BME280;48480;50.252;18.848;2024-01-11T03:53:00;99717.98;;;-7.03;65.51
62436;BME280;48480;50.252;18.848;2024-01-11T03:55:44;99722.39;;;-6.99;65.29
62436;BME280;48480;50.252;18.848;2024-01-11T03:58:28;99728.16;;;-6.99;65.16
62436;BME280;48480;50.252;18.848;2024-01-11T04:01:13;99719.05;;;-6.97;65.08
62436;BME280;48480;50.252;18.848;2024-01-11T04:03:57;99716.29;;;-6.93;65.11
62436;BME280;48480;50.252;18.848;2024-01-11T04:06:41;99718.65;;;-6.88;64.92
62436;BME280;48480;50.252;18.848;2024-01-11T04:09:25;99720.92;;;-6.81;64.58
62436;BME280;48480;50.252;18.848;2024-01-11T04:12:09;99714.70;;;-6.75;64.80
62436;BME280;48480;50.252;18.848;2024-01-11T04:14:54;99711.23;;;-6.74;64.55
62436;BME280;48480;50.252;18.848;2024-01-11T04:17:38;99710.39;;;-6.74;64.50
62436;BME280;48480;50.252;18.848;2024-01-11T04:20:23;99702.80;;;-6.75;64.59
62436;BME280;48480;50.252;18.848;2024-01-11T04:23:08;99698.70;;;-6.77;64.46
62436;BME280;48480;50.252;18.848;2024-01-11T04:25:52;99682.35;;;-6.82;64.38
62436;BME280;48480;50.252;18.848;2024-01-11T04:28:37;99686.18;;;-6.90;64.84
62436;BME280;48480;50.252;18.848;2024-01-11T04:31:21;99698.70;;;-7.02;65.24
62436;BME280;48480;50.252;18.848;2024-01-11T04:34:05;99708.47;;;-7.13;65.27
62436;BME280;48480;50.252;18.848;2024-01-11T04:36:50;99710.85;;;-7.32;64.84
62436;BME280;48480;50.252;18.848;2024-01-11T04:39:35;99717.09;;;-7.51;64.92
62436;BME280;48480;50.252;18.848;2024-01-11T04:42:19;99716.06;;;-7.64;65.25
62436;BME280;48480;50.252;18.848;2024-01-11T04:45:04;99705.15;;;-7.64;65.11
62436;BME280;48480;50.252;18.848;2024-01-11T04:47:50;99694.52;;;-7.61;64.77
62436;BME280;48480;50.252;18.848;2024-01-11T04:50:34;99699.90;;;-7.54;64.91
62436;BME280;48480;50.252;18.848;2024-01-11T04:53:21;99698.09;;;-7.47;64.87
62436;BME280;48480;50.252;18.848;2024-01-11T04:56:10;99700.71;;;-7.41;65.03
62436;BME280;48480;50.252;18.848;2024-01-11T04:58:54;99703.08;;;-7.40;64.87
62436;BME280;48480;50.252;18.848;2024-01-11T05:01:39;99701.12;;;-7.46;65.11
62436;BME280;48480;50.252;18.848;2024-01-11T05:04:23;99700.89;;;-7.47;65.13
62436;BME280;48480;50.252;18.848;2024-01-11T05:07:07;99696.48;;;-7.43;64.96
62436;BME280;48480;50.252;18.848;2024-01-11T05:09:51;99691.75;;;-7.36;64.83
62436;BME280;48480;50.252;18.848;2024-01-11T05:12:36;99688.58;;;-7.28;65.01
62436;BME280;48480;50.252;18.848;2024-01-11T05:15:21;99681.88;;;-7.23;65.19
62436;BME280;48480;50.252;18.848;2024-01-11T05:18:05;99672.25;;;-7.20;65.14
62436;BME280;48480;50.252;18.848;2024-01-11T05:20:49;99669.74;;;-7.21;65.06
62436;BME280;48480;50.252;18.848;2024-01-11T05:23:33;99659.59;;;-7.26;65.04
62436;BME280;48480;50.252;18.848;2024-01-11T05:26:18;99657.45;;;-7.35;64.94
62436;BME280;48480;50.252;18.848;2024-01-11T05:29:02;99652.13;;;-7.48;64.96
62436;BME280;48480;50.252;18.848;2024-01-11T05:31:48;99655.06;;;-7.59;65.13
62436;BME280;48480;50.252;18.848;2024-01-11T05:34:32;99654.70;;;-7.76;65.43
62436;BME280;48480;50.252;18.848;2024-01-11T05:37:16;99664.80;;;-7.81;66.01
62436;BME280;48480;50.252;18.848;2024-01-11T05:40:01;99666.77;;;-7.85;66.17
62436;BME280;48480;50.252;18.848;2024-01-11T05:42:45;99661.98;;;-7.86;66.06
62436;BME280;48480;50.252;18.848;2024-01-11T05:45:29;99665.02;;;-7.82;66.07
62436;BME280;48480;50.252;18.848;2024-01-11T05:48:15;99674.21;;;-7.83;65.40
62436;BME280;48480;50.252;18.848;2024-01-11T05:50:59;99658.59;;;-7.83;65.81
62436;BME280;48480;50.252;18.848;2024-01-11T05:53:43;99648.89;;;-7.75;65.82
62436;BME280;48480;50.252;18.848;2024-01-11T05:56:27;99645.21;;;-7.67;65.74
62436;BME280;48480;50.252;18.848;2024-01-11T05:59:12;99636.82;;;-7.59;65.77
62436;BME280;48480;50.252;18.848;2024-01-11T06:01:56;99633.60;;;-7.52;65.77
62436;BME280;48480;50.252;18.848;2024-01-11T06:04:44;99636.05;;;-7.46;65.75
62436;BME280;48480;50.252;18.848;2024-01-11T06:07:28;99646.37;;;-7.41;65.59
62436;BME280;48480;50.252;18.848;2024-01-11T06:10:14;99643.13;;;-7.40;65.63
62436;BME280;48480;50.252;18.848;2024-01-11T06:12:58;99650.55;;;-7.36;65.62
62436;BME280;48480;50.252;18.848;2024-01-11T06:15:42;99657.08;;;-7.41;65.48
62436;BME280;48480;50.252;18.848;2024-01-11T06:18:26;99651.92;;;-7.48;65.49
62436;BME280;48480;50.252;18.848;2024-01-11T06:21:10;99647.54;;;-7.57;65.54
62436;BME280;48480;50.252;18.848;2024-01-11T06:23:55;99643.02;;;-7.65;65.59
62436;BME280;48480;50.252;18.848;2024-01-11T06:26:39;99641.52;;;-7.67;65.80
62436;BME280;48480;50.252;18.848;2024-01-11T06:29:23;99640.56;;;-7.68;65.81
62436;BME280;48480;50.252;18.848;2024-01-11T06:32:07;99633.36;;;-7.69;65.67
62436;BME280;48480;50.252;18.848;2024-01-11T06:34:51;99629.98;;;-7.69;66.07
62436;BME280;48480;50.252;18.848;2024-01-11T06:37:35;99624.04;;;-7.70;66.47
62436;BME280;48480;50.252;18.848;2024-01-11T06:40:20;99617.05;;;-7.65;66.30
62436;BME280;48480;50.252;18.848;2024-01-11T06:43:04;99607.55;;;-7.55;66.14
62436;BME280;48480;50.252;18.848;2024-01-11T06:45:49;99592.81;;;-7.44;66.18
62436;BME280;48480;50.252;18.848;2024-01-11T06:48:33;99583.84;;;-7.35;66.44
62436;BME280;48480;50.252;18.848;2024-01-11T06:51:21;99583.35;;;-7.25;66.49
62436;BME280;48480;50.252;18.848;2024-01-11T06:54:07;99568.96;;;-7.17;66.41
62436;BME280;48480;50.252;18.848;2024-01-11T06:56:51;99568.41;;;-7.01;66.19
62436;BME280;48480;50.252;18.848;2024-01-11T06:59:35;99562.80;;;-6.91;65.98
62436;BME280;48480;50.252;18.848;2024-01-11T07:02:19;99569.59;;;-6.80;65.92
62436;BME280;48480;50.252;18.848;2024-01-11T07:05:03;99575.35;;;-6.71;65.82
62436;BME280;48480;50.252;18.848;2024-01-11T07:07:47;99578.12;;;-6.66;66.00
62436;BME280;48480;50.252;18.848;2024-01-11T07:10:31;99576.81;;;-6.67;65.78
62436;BME280;48480;50.252;18.848;2024-01-11T07:13:15;99561.34;;;-6.70;65.74
62436;BME280;48480;50.252;18.848;2024-01-11T07:16:00;99553.67;;;-6.70;65.56
62436;BME280;48480;50.252;18.848;2024-01-11T07:18:47;99544.05;;;-6.69;66.06
62436;BME280;48480;50.252;18.848;2024-01-11T07:21:31;99536.42;;;-6.67;65.89
62436;BME280;48480;50.252;18.848;2024-01-11T07:24:15;99532.73;;;-6.61;65.53
62436;BME280;48480;50.252;18.848;2024-01-11T07:26:59;99539.52;;;-6.59;65.42
62436;BME280;48480;50.252;18.848;2024-01-11T07:29:43;99542.92;;;-6.56;65.45
62436;BME280;48480;50.252;18.848;2024-01-11T07:32:28;99546.32;;;-6.53;65.96
62436;BME280;48480;50.252;18.848;2024-01-11T07:35:13;99552.14;;;-6.48;66.48
62436;BME280;48480;50.252;18.848;2024-01-11T07:37:58;99562.42;;;-6.40;66.75
62436;BME280;48480;50.252;18.848;2024-01-11T07:40:42;99572.01;;;-6.36;66.75
62436;BME280;48480;50.252;18.848;2024-01-11T07:43:26;99579.48;;;-6.30;67.28
62436;BME280;48480;50.252;18.848;2024-01-11T07:46:12;99581.77;;;-6.22;67.51
62436;BME280;48480;50.252;18.848;2024-01-11T07:48:56;99578.17;;;-6.15;67.47
62436;BME280;48480;50.252;18.848;2024-01-11T07:51:41;99558.02;;;-6.04;67.32
62436;BME280;48480;50.252;18.848;2024-01-11T07:54:25;99553.39;;;-5.87;66.78
62436;BME280;48480;50.252;18.848;2024-01-11T07:57:09;99545.70;;;-5.69;66.59
62436;BME280;48480;50.252;18.848;2024-01-11T07:59:53;99534.31;;;-5.48;66.61
62436;BME280;48480;50.252;18.848;2024-01-11T08:02:40;99525.98;;;-5.25;66.28
62436;BME280;48480;50.252;18.848;2024-01-11T08:11:22;99508.70;;;-4.78;65.71
62436;BME280;48480;50.252;18.848;2024-01-11T08:14:05;99501.14;;;-4.69;65.27
62436;BME280;48480;50.252;18.848;2024-01-11T08:16:50;99502.66;;;-4.64;65.11
62436;BME280;48480;50.252;18.848;2024-01-11T08:19:35;99506.57;;;-4.59;65.11
62436;BME280;48480;50.252;18.848;2024-01-11T08:22:20;99510.95;;;-4.54;65.16
62436;BME280;48480;50.252;18.848;2024-01-11T08:25:05;99501.40;;;-4.48;65.82
62436;BME280;48480;50.252;18.848;2024-01-11T08:27:50;99499.11;;;-4.40;65.77
62436;BME280;48480;50.252;18.848;2024-01-11T08:30:34;99495.00;;;-4.28;65.78
62436;BME280;48480;50.252;18.848;2024-01-11T08:33:18;99494.63;;;-4.14;65.40
62436;BME280;48480;50.252;18.848;2024-01-11T08:36:03;99489.89;;;-4.03;65.01
62436;BME280;48480;50.252;18.848;2024-01-11T08:38:48;99485.10;;;-3.89;65.09
62436;BME280;48480;50.252;18.848;2024-01-11T08:41:36;99478.29;;;-3.79;64.99
62436;BME280;48480;50.252;18.848;2024-01-11T08:44:24;99476.83;;;-3.69;64.72
62436;BME280;48480;50.252;18.848;2024-01-11T08:47:09;99488.54;;;-3.64;64.67
62436;BME280;48480;50.252;18.848;2024-01-11T08:49:53;99486.44;;;-3.70;65.02
62436;BME280;48480;50.252;18.848;2024-01-11T08:52:37;99498.02;;;-3.70;65.19
62436;BME280;48480;50.252;18.848;2024-01-11T08:55:23;99513.04;;;-3.62;65.46
62436;BME280;48480;50.252;18.848;2024-01-11T08:58:08;99516.45;;;-3.59;65.82
62436;BME280;48480;50.252;18.848;2024-01-11T09:00:52;99517.18;;;-3.55;65.74
62436;BME280;48480;50.252;18.848;2024-01-11T09:03:36;99523.18;;;-3.44;66.04
62436;BME280;48480;50.252;18.848;2024-01-11T09:06:20;99532.17;;;-3.27;65.89
62436;BME280;48480;50.252;18.848;2024-01-11T09:09:05;99532.30;;;-3.06;65.30
62436;BME280;48480;50.252;18.848;2024-01-11T09:11:53;99518.51;;;-2.85;64.09
62436;BME280;48480;50.252;18.848;2024-01-11T09:14:38;99515.80;;;-2.58;63.20
62436;BME280;48480;50.252;18.848;2024-01-11T09:17:23;99526.13;;;-2.35;62.77
62436;BME280;48480;50.252;18.848;2024-01-11T09:20:08;99528.95;;;-2.14;62.26
62436;BME280;48480;50.252;18.848;2024-01-11T09:22:53;99532.04;;;-2.02;61.91
62436;BME280;48480;50.252;18.848;2024-01-11T09:25:37;99530.84;;;-1.94;61.41
62436;BME280;48480;50.252;18.848;2024-01-11T09:28:21;99528.65;;;-1.88;61.10
62436;BME280;48480;50.252;18.848;2024-01-11T09:31:05;99528.64;;;-1.86;60.93
62436;BME280;48480;50.252;18.848;2024-01-11T09:33:49;99526.44;;;-1.83;60.45
62436;BME280;48480;50.252;18.848;2024-01-11T09:36:34;99517.39;;;-1.84;60.08
62436;BME280;48480;50.252;18.848;2024-01-11T09:39:18;99520.64;;;-1.80;59.91
62436;BME280;48480;50.252;18.848;2024-01-11T09:42:07;99524.95;;;-1.74;59.82
62436;BME280;48480;50.252;18.848;2024-01-11T09:44:54;99527.41;;;-1.73;59.47
62436;BME280;48480;50.252;18.848;2024-01-11T09:47:40;99518.39;;;-1.74;59.77
62436;BME280;48480;50.252;18.848;2024-01-11T09:50:24;99501.72;;;-1.65;59.55
62436;BME280;48480;50.252;18.848;2024-01-11T09:53:09;99490.00;;;-1.53;59.03
62436;BME280;48480;50.252;18.848;2024-01-11T09:55:53;99485.65;;;-1.43;58.52
62436;BME280;48480;50.252;18.848;2024-01-11T09:58:46;99486.94;;;-1.33;58.29
62436;BME280;48480;50.252;18.848;2024-01-11T10:01:32;99481.96;;;-1.28;58.24
62436;BME280;48480;50.252;18.848;2024-01-11T10:04:16;99469.62;;;-1.19;58.06
62436;BME280;48480;50.252;18.848;2024-01-11T10:07:03;99461.10;;;-1.15;57.83
62436;BME280;48480;50.252;18.848;2024-01-11T10:09:49;99460.12;;;-1.08;57.53
62436;BME280;48480;50.252;18.848;2024-01-11T10:12:37;99456.84;;;-1.10;57.28
62436;BME280;48480;50.252;18.848;2024-01-11T10:15:24;99459.43;;;-1.10;57.96
62436;BME280;48480;50.252;18.848;2024-01-11T10:18:08;99456.63;;;-1.13;58.04
62436;BME280;48480;50.252;18.848;2024-01-11T10:20:53;99444.39;;;-1.15;58.21
62436;BME280;48480;50.252;18.848;2024-01-11T10:23:38;99439.39;;;-1.11;57.69
62436;BME280;48480;50.252;18.848;2024-01-11T10:26:22;99439.70;;;-1.04;57.75
62436;BME280;48480;50.252;18.848;2024-01-11T10:29:07;99439.94;;;-0.98;57.62
62436;BME280;48480;50.252;18.848;2024-01-11T10:31:54;99422.16;;;-1.04;57.25
62436;BME280;48480;50.252;18.848;2024-01-11T10:34:38;99438.81;;;-0.95;57.61
62436;BME280;48480;50.252;18.848;2024-01-11T10:37:25;99431.70;;;-0.93;57.45
62436;BME280;48480;50.252;18.848;2024-01-11T10:40:10;99425.75;;;-0.92;56.61
62436;BME280;48480;50.252;18.848;2024-01-11T10:42:58;99426.02;;;-0.92;56.99
62436;BME280;48480;50.252;18.848;2024-01-11T10:45:44;99422.58;;;-0.87;57.28
62436;BME280;48480;50.252;18.848;2024-01-11T10:48:36;99423.77;;;-0.80;56.75
62436;BME280;48480;50.252;18.848;2024-01-11T10:51:22;99421.50;;;-0.80;57.04
62436;BME280;48480;50.252;18.848;2024-01-11T10:54:08;99414.13;;;-0.72;57.25
62436;BME280;48480;50.252;18.848;2024-01-11T10:56:53;99409.35;;;-0.64;56.91
62436;BME280;48480;50.252;18.848;2024-01-11T10:59:39;99404.52;;;-0.58;56.50
62436;BME280;48480;50.252;18.848;2024-01-11T11:02:24;99396.77;;;-0.56;56.30
62436;BME280;48480;50.252;18.848;2024-01-11T11:05:10;99389.72;;;-0.60;55.75
62436;BME280;48480;50.252;18.848;2024-01-11T11:07:58;99397.34;;;-0.68;55.76
62436;BME280;48480;50.252;18.848;2024-01-11T11:10:45;99394.45;;;-0.71;55.97
62436;BME280;48480;50.252;18.848;2024-01-11T11:13:32;99386.33;;;-0.66;55.96
62436;BME280;48480;50.252;18.848;2024-01-11T11:16:18;99397.67;;;-0.56;55.41
62436;BME280;48480;50.252;18.848;2024-01-11T11:19:04;99395.15;;;-0.64;55.28
62436;BME280;48480;50.252;18.848;2024-01-11T11:21:48;99386.32;;;-0.65;55.44
62436;BME280;48480;50.252;18.848;2024-01-11T11:24:36;99368.73;;;-0.62;55.38
62436;BME280;48480;50.252;18.848;2024-01-11T11:27:21;99371.89;;;-0.49;55.30
62436;BME280;48480;50.252;18.848;2024-01-11T11:30:05;99373.52;;;-0.46;55.30
62436;BME280;48480;50.252;18.848;2024-01-11T11:32:50;99368.16;;;-0.36;55.78
62436;BME280;48480;50.252;18.848;2024-01-11T11:35:34;99361.43;;;-0.26;56.05
62436;BME280;48480;50.252;18.848;2024-01-11T11:38:21;99355.97;;;-0.14;55.87
62436;BME280;48480;50.252;18.848;2024-01-11T11:41:05;99349.55;;;-0.08;54.96
62436;BME280;48480;50.252;18.848;2024-01-11T11:43:51;99348.20;;;-0.13;54.10
62436;BME280;48480;50.252;18.848;2024-01-11T11:46:35;99345.69;;;-0.16;54.69
62436;BME280;48480;50.252;18.848;2024-01-11T11:49:20;99344.80;;;-0.14;54.55
62436;BME280;48480;50.252;18.848;2024-01-11T11:52:05;99339.70;;;-0.11;54.70
62436;BME280;48480;50.252;18.848;2024-01-11T11:54:50;99334.13;;;-0.07;54.77
62436;BME280;48480;50.252;18.848;2024-01-11T11:57:37;99330.38;;;-0.09;54.15
62436;BME280;48480;50.252;18.848;2024-01-11T12:00:23;99333.95;;;-0.09;54.31
62436;BME280;48480;50.252;18.848;2024-01-11T12:03:08;99339.20;;;-0.14;53.38
62436;BME280;48480;50.252;18.848;2024-01-11T12:05:53;99335.36;;;-0.22;53.59
62436;BME280;48480;50.252;18.848;2024-01-11T12:08:41;99334.98;;;-0.24;53.78
62436;BME280;48480;50.252;18.848;2024-01-11T12:11:25;99330.13;;;-0.28;53.79
62436;BME280;48480;50.252;18.848;2024-01-11T12:14:10;99320.77;;;-0.37;53.89
62436;BME280;48480;50.252;18.848;2024-01-11T12:16:58;99321.89;;;-0.39;53.47
62436;BME280;48480;50.252;18.848;2024-01-11T12:19:42;99331.73;;;-0.35;53.45
62436;BME280;48480;50.252;18.848;2024-01-11T12:22:27;99329.89;;;-0.37;53.49
62436;BME280;48480;50.252;18.848;2024-01-11T12:25:11;99328.97;;;-0.42;53.76
62436;BME280;48480;50.252;18.848;2024-01-11T12:27:56;99323.27;;;-0.48;53.80
62436;BME280;48480;50.252;18.848;2024-01-11T12:30:39;99307.53;;;-0.59;54.20
62436;BME280;48480;50.252;18.848;2024-01-11T12:33:25;99299.16;;;-0.65;54.50
62436;BME280;48480;50.252;18.848;2024-01-11T12:36:10;99296.10;;;-0.70;54.70
62436;BME280;48480;50.252;18.848;2024-01-11T12:38:54;99290.70;;;-0.71;54.96
62436;BME280;48480;50.252;18.848;2024-01-11T12:41:39;99297.54;;;-0.71;55.27
62436;BME280;48480;50.252;18.848;2024-01-11T12:44:23;99301.02;;;-0.74;55.59
62436;BME280;48480;50.252;18.848;2024-01-11T12:47:08;99299.16;;;-0.79;55.49
62436;BME280;48480;50.252;18.848;2024-01-11T12:49:53;99291.67;;;-0.79;55.84
62436;BME280;48480;50.252;18.848;2024-01-11T12:52:37;99287.52;;;-0.81;55.81
62436;BME280;48480;50.252;18.848;2024-01-11T12:55:21;99286.02;;;-0.84;56.09
62436;BME280;48480;50.252;18.848;2024-01-11T12:58:08;99290.13;;;-0.91;56.00
62436;BME280;48480;50.252;18.848;2024-01-11T13:00:53;99278.59;;;-0.98;56.11
62436;BME280;48480;50.252;18.848;2024-01-11T13:03:39;99274.84;;;-1.08;56.78
62436;BME280;48480;50.252;18.848;2024-01-11T13:06:24;99265.92;;;-1.14;57.02
62436;BME280;48480;50.252;18.848;2024-01-11T13:09:09;99259.20;;;-1.20;57.45
62436;BME280;48480;50.252;18.848;2024-01-11T13:11:53;99258.09;;;-1.26;57.72
62436;BME280;48480;50.252;18.848;2024-01-11T13:14:38;99251.30;;;-1.24;57.94
62436;BME280;48480;50.252;18.848;2024-01-11T13:17:24;99251.03;;;-1.21;58.23
62436;BME280;48480;50.252;18.848;2024-01-11T13:20:09;99239.77;;;-1.21;58.50
62436;BME280;48480;50.252;18.848;2024-01-11T13:23:11;99232.73;;;-1.22;58.93
62436;BME280;48480;50.252;18.848;2024-01-11T13:26:00;99231.17;;;-1.27;59.04
62436;BME280;48480;50.252;18.848;2024-01-11T13:28:44;99235.42;;;-1.27;59.35
62436;BME280;48480;50.252;18.848;2024-01-11T13:31:28;99231.04;;;-1.22;59.66
62436;BME280;48480;50.252;18.848;2024-01-11T13:34:13;99231.14;;;-1.17;59.88
62436;BME280;48480;50.252;18.848;2024-01-11T13:36:57;99236.19;;;-1.15;59.72
62436;BME280;48480;50.252;18.848;2024-01-11T13:39:43;99243.96;;;-1.18;59.82
62436;BME280;48480;50.252;18.848;2024-01-11T13:42:27;99240.39;;;-1.15;60.09
62436;BME280;48480;50.252;18.848;2024-01-11T13:45:12;99240.73;;;-1.15;60.05
62436;BME280;48480;50.252;18.848;2024-01-11T13:47:57;99241.06;;;-1.12;60.49
62436;BME280;48480;50.252;18.848;2024-01-11T13:50:41;99249.14;;;-1.06;60.52
62436;BME280;48480;50.252;18.848;2024-01-11T13:53:25;99250.31;;;-1.06;60.33
62436;BME280;48480;50.252;18.848;2024-01-11T13:56:10;99244.10;;;-1.08;60.55
62436;BME280;48480;50.252;18.848;2024-01-11T13:58:55;99245.73;;;-1.10;60.48
62436;BME280;48480;50.252;18.848;2024-01-11T14:01:39;99236.85;;;-1.16;61.03
62436;BME280;48480;50.252;18.848;2024-01-11T14:04:23;99231.75;;;-1.20;61.38
62436;BME280;48480;50.252;18.848;2024-01-11T14:07:07;99234.86;;;-1.27;61.58
62436;BME280;48480;50.252;18.848;2024-01-11T14:09:51;99236.05;;;-1.32;61.75
62436;BME280;48480;50.252;18.848;2024-01-11T14:12:36;99239.76;;;-1.35;61.85
62436;BME280;48480;50.252;18.848;2024-01-11T14:15:21;99234.40;;;-1.37;62.29
62436;BME280;48480;50.252;18.848;2024-01-11T14:18:06;99232.33;;;-1.45;62.23
62436;BME280;48480;50.252;18.848;2024-01-11T14:20:51;99239.98;;;-1.44;62.74
62436;BME280;48480;50.252;18.848;2024-01-11T14:23:35;99239.59;;;-1.38;62.87
62436;BME280;48480;50.252;18.848;2024-01-11T14:26:19;99242.39;;;-1.30;62.83
62436;BME280;48480;50.252;18.848;2024-01-11T14:29:03;99242.36;;;-1.27;62.75